sensor_id;sensor_type;location;lat;lon;timestamp;temperature;humidity
28460;DHT22;32528;45.712;9.192;2023-04-25T00:01:51;15.20;90.50
28460;DHT22;32528;45.712;9.192;2023-04-25T00:03:52;15.20;91.00
28460;DHT22;32528;45.712;9.192;2023-04-25T00:05:53;15.20;90.80
28460;DHT22;32528;45.712;9.192;2023-04-25T00:07:54;15.20;90.90
28460;DHT22;32528;45.712;9.192;2023-04-25T00:09:54;15.20;91.00
28460;DHT22;32528;45.712;9.192;2023-04-25T00:11:55;15.10;90.80
28460;DHT22;32528;45.712;9.192;2023-04-25T00:13:56;15.10;90.70
28460;DHT22;32528;45.712;9.192;2023-04-25T00:15:57;15.10;91.10
28460;DHT22;32528;45.712;9.192;2023-04-25T00:17:58;15.00;91.20
28460;DHT22;32528;45.712;9.192;2023-04-25T00:19:59;14.90;91.30
28460;DHT22;32528;45.712;9.192;2023-04-25T00:21:59;14.80;91.70
28460;DHT22;32528;45.712;9.192;2023-04-25T00:24:00;14.80;91.90
28460;DHT22;32528;45.712;9.192;2023-04-25T00:26:00;14.60;92.20
28460;DHT22;32528;45.712;9.192;2023-04-25T00:28:01;14.60;92.60
28460;DHT22;32528;45.712;9.192;2023-04-25T00:30:02;14.60;92.70
28460;DHT22;32528;45.712;9.192;2023-04-25T00:32:03;14.50;92.80
28460;DHT22;32528;45.712;9.192;2023-04-25T00:34:03;14.40;92.80
28460;DHT22;32528;45.712;9.192;2023-04-25T00:36:04;14.30;93.10
28460;DHT22;32528;45.712;9.192;2023-04-25T00:38:05;14.30;93.20
28460;DHT22;32528;45.712;9.192;2023-04-25T00:40:06;14.10;93.30
28460;DHT22;32528;45.712;9.192;2023-04-25T00:42:06;14.10;93.30
28460;DHT22;32528;45.712;9.192;2023-04-25T00:44:08;14.10;93.20
28460;DHT22;32528;45.712;9.192;2023-04-25T00:46:11;14.10;93.30
28460;DHT22;32528;45.712;9.192;2023-04-25T00:48:13;14.10;93.50
28460;DHT22;32528;45.712;9.192;2023-04-25T00:50:14;14.10;93.40
28460;DHT22;32528;45.712;9.192;2023-04-25T00:52:14;14.10;93.20
28460;DHT22;32528;45.712;9.192;2023-04-25T00:54:15;14.10;93.20
28460;DHT22;32528;45.712;9.192;2023-04-25T00:56:16;14.00;93.20
28460;DHT22;32528;45.712;9.192;2023-04-25T00:58:17;14.00;93.30
28460;DHT22;32528;45.712;9.192;2023-04-25T01:00:18;13.80;93.50
28460;DHT22;32528;45.712;9.192;2023-04-25T01:02:19;13.70;93.80
28460;DHT22;32528;45.712;9.192;2023-04-25T01:04:21;13.70;94.10
28460;DHT22;32528;45.712;9.192;2023-04-25T01:06:21;13.70;94.10
28460;DHT22;32528;45.712;9.192;2023-04-25T01:08:23;13.70;94.20
28460;DHT22;32528;45.712;9.192;2023-04-25T01:10:25;13.60;94.40
28460;DHT22;32528;45.712;9.192;2023-04-25T01:12:26;13.50;94.40
28460;DHT22;32528;45.712;9.192;2023-04-25T01:14:26;13.50;94.80
28460;DHT22;32528;45.712;9.192;2023-04-25T01:16:27;13.40;94.60
28460;DHT22;32528;45.712;9.192;2023-04-25T01:18:28;13.30;94.80
28460;DHT22;32528;45.712;9.192;2023-04-25T01:20:29;13.30;94.80
28460;DHT22;32528;45.712;9.192;2023-04-25T01:22:31;13.30;94.80
28460;DHT22;32528;45.712;9.192;2023-04-25T01:24:32;13.20;95.00
28460;DHT22;32528;45.712;9.192;2023-04-25T01:26:33;13.20;95.40
28460;DHT22;32528;45.712;9.192;2023-04-25T01:28:34;13.10;95.30
28460;DHT22;32528;45.712;9.192;2023-04-25T01:30:35;13.10;95.40
28460;DHT22;32528;45.712;9.192;2023-04-25T01:32:36;13.00;95.50
28460;DHT22;32528;45.712;9.192;2023-04-25T01:34:39;13.00;95.50
28460;DHT22;32528;45.712;9.192;2023-04-25T01:36:40;12.90;95.70
28460;DHT22;32528;45.712;9.192;2023-04-25T01:38:41;12.90;95.80
28460;DHT22;32528;45.712;9.192;2023-04-25T01:40:42;12.80;95.90
28460;DHT22;32528;45.712;9.192;2023-04-25T01:42:44;12.70;95.80
28460;DHT22;32528;45.712;9.192;2023-04-25T01:44:46;12.70;95.90
28460;DHT22;32528;45.712;9.192;2023-04-25T01:46:46;12.70;96.00
28460;DHT22;32528;45.712;9.192;2023-04-25T01:48:47;12.60;96.20
28460;DHT22;32528;45.712;9.192;2023-04-25T01:50:48;12.60;96.30
28460;DHT22;32528;45.712;9.192;2023-04-25T01:52:48;12.70;96.20
28460;DHT22;32528;45.712;9.192;2023-04-25T01:54:49;12.60;96.60
28460;DHT22;32528;45.712;9.192;2023-04-25T01:56:52;12.60;96.70
28460;DHT22;32528;45.712;9.192;2023-04-25T01:58:53;12.50;96.70
28460;DHT22;32528;45.712;9.192;2023-04-25T02:00:54;12.50;96.90
28460;DHT22;32528;45.712;9.192;2023-04-25T02:02:57;12.50;96.90
28460;DHT22;32528;45.712;9.192;2023-04-25T02:05:02;12.50;96.90
28460;DHT22;32528;45.712;9.192;2023-04-25T02:07:04;12.40;96.90
28460;DHT22;32528;45.712;9.192;2023-04-25T02:09:17;12.40;96.80
28460;DHT22;32528;45.712;9.192;2023-04-25T02:11:26;12.40;96.70
28460;DHT22;32528;45.712;9.192;2023-04-25T02:13:56;12.30;97.00
28460;DHT22;32528;45.712;9.192;2023-04-25T02:16:26;12.20;97.30
28460;DHT22;32528;45.712;9.192;2023-04-25T02:18:27;12.00;97.60
28460;DHT22;32528;45.712;9.192;2023-04-25T02:20:28;11.90;98.00
28460;DHT22;32528;45.712;9.192;2023-04-25T02:22:29;11.90;98.30
28460;DHT22;32528;45.712;9.192;2023-04-25T02:24:31;11.90;98.90
28460;DHT22;32528;45.712;9.192;2023-04-25T02:26:32;11.90;98.40
28460;DHT22;32528;45.712;9.192;2023-04-25T02:28:33;11.90;98.20
28460;DHT22;32528;45.712;9.192;2023-04-25T02:30:33;11.90;98.00
28460;DHT22;32528;45.712;9.192;2023-04-25T02:32:39;11.90;98.30
28460;DHT22;32528;45.712;9.192;2023-04-25T02:34:40;11.80;97.90
28460;DHT22;32528;45.712;9.192;2023-04-25T02:36:40;11.90;97.60
28460;DHT22;32528;45.712;9.192;2023-04-25T02:38:41;11.80;97.50
28460;DHT22;32528;45.712;9.192;2023-04-25T02:40:42;11.80;97.60
28460;DHT22;32528;45.712;9.192;2023-04-25T02:42:42;11.90;97.80
28460;DHT22;32528;45.712;9.192;2023-04-25T02:44:45;11.90;97.60
28460;DHT22;32528;45.712;9.192;2023-04-25T02:46:47;11.80;97.50
28460;DHT22;32528;45.712;9.192;2023-04-25T02:48:48;11.80;97.50
28460;DHT22;32528;45.712;9.192;2023-04-25T02:50:49;11.70;97.80
28460;DHT22;32528;45.712;9.192;2023-04-25T02:52:50;11.70;98.20
28460;DHT22;32528;45.712;9.192;2023-04-25T02:54:56;11.70;98.30
28460;DHT22;32528;45.712;9.192;2023-04-25T02:56:57;11.70;98.30
28460;DHT22;32528;45.712;9.192;2023-04-25T02:59:02;11.70;98.50
28460;DHT22;32528;45.712;9.192;2023-04-25T03:01:04;11.60;99.10
28460;DHT22;32528;45.712;9.192;2023-04-25T03:03:05;11.60;99.30
28460;DHT22;32528;45.712;9.192;2023-04-25T03:05:06;11.60;98.70
28460;DHT22;32528;45.712;9.192;2023-04-25T03:07:08;11.50;98.40
28460;DHT22;32528;45.712;9.192;2023-04-25T03:09:09;11.50;98.20
28460;DHT22;32528;45.712;9.192;2023-04-25T03:11:09;11.50;98.00
28460;DHT22;32528;45.712;9.192;2023-04-25T03:13:11;11.50;97.70
28460;DHT22;32528;45.712;9.192;2023-04-25T03:15:16;11.60;97.80
28460;DHT22;32528;45.712;9.192;2023-04-25T03:17:17;11.60;97.90
28460;DHT22;32528;45.712;9.192;2023-04-25T03:19:17;11.60;97.70
28460;DHT22;32528;45.712;9.192;2023-04-25T03:21:18;11.50;97.80
28460;DHT22;32528;45.712;9.192;2023-04-25T03:23:19;11.60;97.90
28460;DHT22;32528;45.712;9.192;2023-04-25T03:25:20;11.50;97.70
28460;DHT22;32528;45.712;9.192;2023-04-25T03:27:21;11.40;97.70
28460;DHT22;32528;45.712;9.192;2023-04-25T03:29:22;11.40;97.70
28460;DHT22;32528;45.712;9.192;2023-04-25T03:31:27;11.40;98.00
28460;DHT22;32528;45.712;9.192;2023-04-25T03:33:28;11.30;98.00
28460;DHT22;32528;45.712;9.192;2023-04-25T03:35:29;11.20;98.40
28460;DHT22;32528;45.712;9.192;2023-04-25T03:37:30;11.20;98.20
28460;DHT22;32528;45.712;9.192;2023-04-25T03:39:30;11.20;97.80
28460;DHT22;32528;45.712;9.192;2023-04-25T03:41:31;11.20;97.40
28460;DHT22;32528;45.712;9.192;2023-04-25T03:43:37;11.10;97.50
28460;DHT22;32528;45.712;9.192;2023-04-25T03:45:43;11.20;97.60
28460;DHT22;32528;45.712;9.192;2023-04-25T03:47:44;11.00;97.70
28460;DHT22;32528;45.712;9.192;2023-04-25T03:49:45;11.00;97.90
28460;DHT22;32528;45.712;9.192;2023-04-25T03:51:46;10.90;98.30
28460;DHT22;32528;45.712;9.192;2023-04-25T03:53:47;10.80;98.40
28460;DHT22;32528;45.712;9.192;2023-04-25T03:55:53;10.70;98.70
28460;DHT22;32528;45.712;9.192;2023-04-25T03:57:54;10.70;98.90
28460;DHT22;32528;45.712;9.192;2023-04-25T03:59:56;10.60;98.90
28460;DHT22;32528;45.712;9.192;2023-04-25T04:01:57;10.60;98.80
28460;DHT22;32528;45.712;9.192;2023-04-25T04:04:00;10.50;98.90
28460;DHT22;32528;45.712;9.192;2023-04-25T04:06:03;10.50;98.90
28460;DHT22;32528;45.712;9.192;2023-04-25T04:08:06;10.50;99.10
28460;DHT22;32528;45.712;9.192;2023-04-25T04:10:09;10.40;99.50
28460;DHT22;32528;45.712;9.192;2023-04-25T04:12:13;10.40;99.30
28460;DHT22;32528;45.712;9.192;2023-04-25T04:14:15;10.30;99.10
28460;DHT22;32528;45.712;9.192;2023-04-25T04:16:19;10.30;99.00
28460;DHT22;32528;45.712;9.192;2023-04-25T04:18:21;10.30;98.90
28460;DHT22;32528;45.712;9.192;2023-04-25T04:20:23;10.30;98.70
28460;DHT22;32528;45.712;9.192;2023-04-25T04:22:24;10.30;98.70
28460;DHT22;32528;45.712;9.192;2023-04-25T04:24:29;10.20;98.60
28460;DHT22;32528;45.712;9.192;2023-04-25T04:26:34;10.10;99.00
28460;DHT22;32528;45.712;9.192;2023-04-25T04:28:43;10.10;99.20
28460;DHT22;32528;45.712;9.192;2023-04-25T04:31:04;10.10;99.10
28460;DHT22;32528;45.712;9.192;2023-04-25T04:33:05;10.10;98.80
28460;DHT22;32528;45.712;9.192;2023-04-25T04:35:06;10.20;98.70
28460;DHT22;32528;45.712;9.192;2023-04-25T04:37:07;10.20;98.70
28460;DHT22;32528;45.712;9.192;2023-04-25T04:39:09;10.20;98.60
28460;DHT22;32528;45.712;9.192;2023-04-25T04:41:17;10.10;98.60
28460;DHT22;32528;45.712;9.192;2023-04-25T04:43:39;10.10;98.20
28460;DHT22;32528;45.712;9.192;2023-04-25T04:46:00;10.00;98.40
28460;DHT22;32528;45.712;9.192;2023-04-25T04:48:06;10.10;98.60
28460;DHT22;32528;45.712;9.192;2023-04-25T04:50:21;10.10;98.40
28460;DHT22;32528;45.712;9.192;2023-04-25T04:52:45;10.10;98.50
28460;DHT22;32528;45.712;9.192;2023-04-25T04:55:08;10.10;98.60
28460;DHT22;32528;45.712;9.192;2023-04-25T04:57:19;10.10;98.50
28460;DHT22;32528;45.712;9.192;2023-04-25T04:59:39;10.10;97.90
28460;DHT22;32528;45.712;9.192;2023-04-25T05:01:47;10.20;97.90
28460;DHT22;32528;45.712;9.192;2023-04-25T05:04:06;10.20;97.90
28460;DHT22;32528;45.712;9.192;2023-04-25T05:06:26;10.20;97.60
28460;DHT22;32528;45.712;9.192;2023-04-25T05:08:45;10.20;97.90
28460;DHT22;32528;45.712;9.192;2023-04-25T05:11:13;10.30;97.90
28460;DHT22;32528;45.712;9.192;2023-04-25T05:13:33;10.30;97.20
28460;DHT22;32528;45.712;9.192;2023-04-25T05:15:52;10.30;97.50
28460;DHT22;32528;45.712;9.192;2023-04-25T05:18:14;10.30;97.20
28460;DHT22;32528;45.712;9.192;2023-04-25T05:20:40;10.40;97.70
28460;DHT22;32528;45.712;9.192;2023-04-25T05:23:10;10.50;96.70
28460;DHT22;32528;45.712;9.192;2023-04-25T05:25:27;10.50;96.40
28460;DHT22;32528;45.712;9.192;2023-04-25T05:27:37;10.60;96.50
28460;DHT22;32528;45.712;9.192;2023-04-25T05:30:04;10.70;96.70
28460;DHT22;32528;45.712;9.192;2023-04-25T05:32:20;10.80;96.80
28460;DHT22;32528;45.712;9.192;2023-04-25T05:34:22;10.90;96.60
28460;DHT22;32528;45.712;9.192;2023-04-25T05:36:32;11.00;96.00
28460;DHT22;32528;45.712;9.192;2023-04-25T05:38:33;11.10;95.80
28460;DHT22;32528;45.712;9.192;2023-04-25T05:40:42;11.20;95.40
28460;DHT22;32528;45.712;9.192;2023-04-25T05:42:52;11.30;95.70
28460;DHT22;32528;45.712;9.192;2023-04-25T05:44:55;11.40;95.50
28460;DHT22;32528;45.712;9.192;2023-04-25T05:47:06;11.50;95.40
28460;DHT22;32528;45.712;9.192;2023-04-25T05:49:29;11.60;95.60
28460;DHT22;32528;45.712;9.192;2023-04-25T05:51:30;11.80;95.60
28460;DHT22;32528;45.712;9.192;2023-04-25T05:53:51;11.90;95.10
28460;DHT22;32528;45.712;9.192;2023-04-25T05:55:52;12.10;94.20
28460;DHT22;32528;45.712;9.192;2023-04-25T05:57:58;12.30;94.50
28460;DHT22;32528;45.712;9.192;2023-04-25T05:59:59;12.40;94.30
28460;DHT22;32528;45.712;9.192;2023-04-25T06:02:13;12.50;94.20
28460;DHT22;32528;45.712;9.192;2023-04-25T06:04:16;12.70;94.00
28460;DHT22;32528;45.712;9.192;2023-04-25T06:06:17;12.80;93.70
28460;DHT22;32528;45.712;9.192;2023-04-25T06:08:18;12.90;93.40
28460;DHT22;32528;45.712;9.192;2023-04-25T06:10:20;13.00;93.30
28460;DHT22;32528;45.712;9.192;2023-04-25T06:12:20;13.20;93.50
28460;DHT22;32528;45.712;9.192;2023-04-25T06:14:22;13.30;94.00
28460;DHT22;32528;45.712;9.192;2023-04-25T06:16:24;13.40;94.40
28460;DHT22;32528;45.712;9.192;2023-04-25T06:18:27;13.50;93.60
28460;DHT22;32528;45.712;9.192;2023-04-25T06:20:27;13.70;93.40
28460;DHT22;32528;45.712;9.192;2023-04-25T06:22:31;13.70;93.50
28460;DHT22;32528;45.712;9.192;2023-04-25T06:24:32;13.90;93.70
28460;DHT22;32528;45.712;9.192;2023-04-25T06:26:34;14.00;93.60
28460;DHT22;32528;45.712;9.192;2023-04-25T06:28:34;14.20;93.40
28460;DHT22;32528;45.712;9.192;2023-04-25T06:30:35;14.30;92.40
28460;DHT22;32528;45.712;9.192;2023-04-25T06:32:41;14.30;91.10
28460;DHT22;32528;45.712;9.192;2023-04-25T06:34:41;14.50;90.70
28460;DHT22;32528;45.712;9.192;2023-04-25T06:36:43;14.40;90.00
28460;DHT22;32528;45.712;9.192;2023-04-25T06:38:48;14.50;89.90
28460;DHT22;32528;45.712;9.192;2023-04-25T06:40:48;14.50;89.90
28460;DHT22;32528;45.712;9.192;2023-04-25T06:42:49;14.60;89.60
28460;DHT22;32528;45.712;9.192;2023-04-25T06:45:25;14.70;89.60
28460;DHT22;32528;45.712;9.192;2023-04-25T06:47:27;14.80;89.30
28460;DHT22;32528;45.712;9.192;2023-04-25T06:49:28;14.90;89.50
28460;DHT22;32528;45.712;9.192;2023-04-25T06:51:30;14.90;90.50
28460;DHT22;32528;45.712;9.192;2023-04-25T06:53:31;14.90;89.40
28460;DHT22;32528;45.712;9.192;2023-04-25T06:55:35;15.00;89.00
28460;DHT22;32528;45.712;9.192;2023-04-25T06:57:56;15.10;88.50
28460;DHT22;32528;45.712;9.192;2023-04-25T07:00:17;15.20;89.10
28460;DHT22;32528;45.712;9.192;2023-04-25T07:02:18;15.20;89.60
28460;DHT22;32528;45.712;9.192;2023-04-25T07:04:19;15.10;88.90
28460;DHT22;32528;45.712;9.192;2023-04-25T07:06:24;15.00;89.40
28460;DHT22;32528;45.712;9.192;2023-04-25T07:08:26;15.10;88.60
28460;DHT22;32528;45.712;9.192;2023-04-25T07:10:27;15.20;88.20
28460;DHT22;32528;45.712;9.192;2023-04-25T07:12:28;15.30;89.80
28460;DHT22;32528;45.712;9.192;2023-04-25T07:14:29;15.30;89.50
28460;DHT22;32528;45.712;9.192;2023-04-25T07:16:30;15.30;89.30
28460;DHT22;32528;45.712;9.192;2023-04-25T07:18:32;15.40;89.10
28460;DHT22;32528;45.712;9.192;2023-04-25T07:20:36;15.40;88.30
28460;DHT22;32528;45.712;9.192;2023-04-25T07:22:37;15.50;87.70
28460;DHT22;32528;45.712;9.192;2023-04-25T07:24:39;15.60;88.80
28460;DHT22;32528;45.712;9.192;2023-04-25T07:26:40;15.70;88.20
28460;DHT22;32528;45.712;9.192;2023-04-25T07:28:57;15.70;87.60
28460;DHT22;32528;45.712;9.192;2023-04-25T07:30:58;15.60;87.40
28460;DHT22;32528;45.712;9.192;2023-04-25T07:32:59;15.70;87.00
28460;DHT22;32528;45.712;9.192;2023-04-25T07:35:00;15.70;88.20
28460;DHT22;32528;45.712;9.192;2023-04-25T07:37:02;15.70;87.20
28460;DHT22;32528;45.712;9.192;2023-04-25T07:39:09;15.70;86.80
28460;DHT22;32528;45.712;9.192;2023-04-25T07:41:11;15.70;86.60
28460;DHT22;32528;45.712;9.192;2023-04-25T07:43:12;15.90;88.60
28460;DHT22;32528;45.712;9.192;2023-04-25T07:45:25;15.90;89.10
28460;DHT22;32528;45.712;9.192;2023-04-25T07:47:27;16.10;89.00
28460;DHT22;32528;45.712;9.192;2023-04-25T07:49:29;16.20;90.00
28460;DHT22;32528;45.712;9.192;2023-04-25T07:51:29;16.20;88.50
28460;DHT22;32528;45.712;9.192;2023-04-25T07:53:35;16.10;86.30
28460;DHT22;32528;45.712;9.192;2023-04-25T07:55:41;16.10;86.30
28460;DHT22;32528;45.712;9.192;2023-04-25T07:57:47;16.20;87.70
28460;DHT22;32528;45.712;9.192;2023-04-25T07:59:48;16.30;88.80
28460;DHT22;32528;45.712;9.192;2023-04-25T08:01:49;16.30;87.00
28460;DHT22;32528;45.712;9.192;2023-04-25T08:03:52;16.30;86.90
28460;DHT22;32528;45.712;9.192;2023-04-25T08:06:04;16.30;90.00
28460;DHT22;32528;45.712;9.192;2023-04-25T08:08:09;16.40;87.80
28460;DHT22;32528;45.712;9.192;2023-04-25T08:10:09;16.40;87.50
28460;DHT22;32528;45.712;9.192;2023-04-25T08:12:10;16.40;86.30
28460;DHT22;32528;45.712;9.192;2023-04-25T08:14:11;16.40;86.10
28460;DHT22;32528;45.712;9.192;2023-04-25T08:16:13;16.40;86.10
28460;DHT22;32528;45.712;9.192;2023-04-25T08:18:14;16.20;86.10
28460;DHT22;32528;45.712;9.192;2023-04-25T08:20:16;16.10;88.10
28460;DHT22;32528;45.712;9.192;2023-04-25T08:22:18;16.10;87.80
28460;DHT22;32528;45.712;9.192;2023-04-25T08:24:27;16.30;88.50
28460;DHT22;32528;45.712;9.192;2023-04-25T08:26:29;16.50;86.90
28460;DHT22;32528;45.712;9.192;2023-04-25T08:28:31;16.60;88.10
28460;DHT22;32528;45.712;9.192;2023-04-25T08:30:34;17.00;87.20
28460;DHT22;32528;45.712;9.192;2023-04-25T08:32:35;17.40;86.10
28460;DHT22;32528;45.712;9.192;2023-04-25T08:35:04;17.70;85.60
28460;DHT22;32528;45.712;9.192;2023-04-25T08:37:05;17.80;84.50
28460;DHT22;32528;45.712;9.192;2023-04-25T08:39:19;17.90;83.10
28460;DHT22;32528;45.712;9.192;2023-04-25T08:41:41;18.10;84.30
28460;DHT22;32528;45.712;9.192;2023-04-25T08:43:42;18.40;82.60
28460;DHT22;32528;45.712;9.192;2023-04-25T08:45:43;18.50;82.40
28460;DHT22;32528;45.712;9.192;2023-04-25T08:47:50;18.30;81.50
28460;DHT22;32528;45.712;9.192;2023-04-25T08:49:51;18.30;83.00
28460;DHT22;32528;45.712;9.192;2023-04-25T08:51:53;18.50;81.10
28460;DHT22;32528;45.712;9.192;2023-04-25T08:54:19;18.50;80.70
28460;DHT22;32528;45.712;9.192;2023-04-25T08:56:21;18.70;80.80
28460;DHT22;32528;45.712;9.192;2023-04-25T08:58:23;19.00;80.10
28460;DHT22;32528;45.712;9.192;2023-04-25T09:00:24;19.00;79.40
28460;DHT22;32528;45.712;9.192;2023-04-25T09:02:25;18.80;80.00
28460;DHT22;32528;45.712;9.192;2023-04-25T09:04:26;18.90;79.80
28460;DHT22;32528;45.712;9.192;2023-04-25T09:06:30;18.90;80.40
28460;DHT22;32528;45.712;9.192;2023-04-25T09:08:31;18.90;80.30
28460;DHT22;32528;45.712;9.192;2023-04-25T09:10:32;18.90;79.90
28460;DHT22;32528;45.712;9.192;2023-04-25T09:12:34;18.80;79.80
28460;DHT22;32528;45.712;9.192;2023-04-25T09:14:35;19.10;81.70
28460;DHT22;32528;45.712;9.192;2023-04-25T09:17:07;19.40;80.40
28460;DHT22;32528;45.712;9.192;2023-04-25T09:19:23;19.20;79.50
28460;DHT22;32528;45.712;9.192;2023-04-25T09:21:25;19.10;80.30
28460;DHT22;32528;45.712;9.192;2023-04-25T09:23:26;19.30;80.10
28460;DHT22;32528;45.712;9.192;2023-04-25T09:25:26;19.20;79.70
28460;DHT22;32528;45.712;9.192;2023-04-25T09:27:28;19.20;79.20
28460;DHT22;32528;45.712;9.192;2023-04-25T09:29:58;19.50;80.40
28460;DHT22;32528;45.712;9.192;2023-04-25T09:34:13;19.40;76.80
28460;DHT22;32528;45.712;9.192;2023-04-25T09:36:20;19.00;77.10
28460;DHT22;32528;45.712;9.192;2023-04-25T09:38:52;18.80;78.70
28460;DHT22;32528;45.712;9.192;2023-04-25T09:41:01;19.00;79.00
28460;DHT22;32528;45.712;9.192;2023-04-25T09:43:21;19.10;80.50
28460;DHT22;32528;45.712;9.192;2023-04-25T09:45:23;19.20;79.20
28460;DHT22;32528;45.712;9.192;2023-04-25T09:47:24;19.30;77.70
28460;DHT22;32528;45.712;9.192;2023-04-25T09:49:25;19.40;78.00
28460;DHT22;32528;45.712;9.192;2023-04-25T09:51:37;19.30;79.00
28460;DHT22;32528;45.712;9.192;2023-04-25T09:53:41;19.50;77.60
28460;DHT22;32528;45.712;9.192;2023-04-25T09:56:05;19.60;75.80
28460;DHT22;32528;45.712;9.192;2023-04-25T09:58:07;19.70;75.90
28460;DHT22;32528;45.712;9.192;2023-04-25T10:00:08;19.50;74.80
28460;DHT22;32528;45.712;9.192;2023-04-25T10:02:19;19.40;74.70
28460;DHT22;32528;45.712;9.192;2023-04-25T10:04:23;19.70;74.90
28460;DHT22;32528;45.712;9.192;2023-04-25T10:06:32;20.10;73.40
28460;DHT22;32528;45.712;9.192;2023-04-25T10:08:35;20.30;73.50
28460;DHT22;32528;45.712;9.192;2023-04-25T10:10:37;20.30;71.50
28460;DHT22;32528;45.712;9.192;2023-04-25T10:12:40;20.50;72.60
28460;DHT22;32528;45.712;9.192;2023-04-25T10:14:44;20.60;72.60
28460;DHT22;32528;45.712;9.192;2023-04-25T10:16:45;20.60;72.40
28460;DHT22;32528;45.712;9.192;2023-04-25T10:18:46;20.50;71.50
28460;DHT22;32528;45.712;9.192;2023-04-25T10:20:46;20.70;71.60
28460;DHT22;32528;45.712;9.192;2023-04-25T10:22:47;20.60;71.40
28460;DHT22;32528;45.712;9.192;2023-04-25T10:24:48;20.30;71.60
28460;DHT22;32528;45.712;9.192;2023-04-25T10:26:50;20.20;73.10
28460;DHT22;32528;45.712;9.192;2023-04-25T10:28:58;20.10;73.00
28460;DHT22;32528;45.712;9.192;2023-04-25T10:31:03;19.70;72.80
28460;DHT22;32528;45.712;9.192;2023-04-25T10:33:10;19.30;75.20
28460;DHT22;32528;45.712;9.192;2023-04-25T10:35:18;19.10;75.60
28460;DHT22;32528;45.712;9.192;2023-04-25T10:37:19;19.20;76.80
28460;DHT22;32528;45.712;9.192;2023-04-25T10:39:24;19.40;76.70
28460;DHT22;32528;45.712;9.192;2023-04-25T10:41:24;19.10;76.10
28460;DHT22;32528;45.712;9.192;2023-04-25T10:45:50;19.00;77.40
28460;DHT22;32528;45.712;9.192;2023-04-25T10:47:51;18.90;77.90
28460;DHT22;32528;45.712;9.192;2023-04-25T10:49:51;19.20;77.40
28460;DHT22;32528;45.712;9.192;2023-04-25T10:51:57;19.40;77.30
28460;DHT22;32528;45.712;9.192;2023-04-25T10:54:10;19.50;75.50
28460;DHT22;32528;45.712;9.192;2023-04-25T10:56:22;19.90;75.10
28460;DHT22;32528;45.712;9.192;2023-04-25T11:00:25;20.40;73.60
28460;DHT22;32528;45.712;9.192;2023-04-25T11:02:28;20.30;73.40
28460;DHT22;32528;45.712;9.192;2023-04-25T11:04:33;20.60;73.70
28460;DHT22;32528;45.712;9.192;2023-04-25T11:08:56;20.70;72.30
28460;DHT22;32528;45.712;9.192;2023-04-25T11:10:56;20.80;71.80
28460;DHT22;32528;45.712;9.192;2023-04-25T11:12:58;20.80;70.40
28460;DHT22;32528;45.712;9.192;2023-04-25T11:14:59;21.10;70.40
28460;DHT22;32528;45.712;9.192;2023-04-25T11:17:02;21.20;69.00
28460;DHT22;32528;45.712;9.192;2023-04-25T11:19:03;21.30;68.50
28460;DHT22;32528;45.712;9.192;2023-04-25T11:21:04;21.20;70.50
28460;DHT22;32528;45.712;9.192;2023-04-25T11:23:05;21.10;67.70
28460;DHT22;32528;45.712;9.192;2023-04-25T11:25:06;21.10;69.40
28460;DHT22;32528;45.712;9.192;2023-04-25T11:27:07;21.30;69.70
28460;DHT22;32528;45.712;9.192;2023-04-25T11:29:09;21.40;69.40
28460;DHT22;32528;45.712;9.192;2023-04-25T11:31:09;21.00;69.10
28460;DHT22;32528;45.712;9.192;2023-04-25T11:33:11;21.00;69.20
28460;DHT22;32528;45.712;9.192;2023-04-25T11:35:11;20.60;68.80
28460;DHT22;32528;45.712;9.192;2023-04-25T11:37:13;20.60;68.60
28460;DHT22;32528;45.712;9.192;2023-04-25T11:39:14;20.70;68.90
28460;DHT22;32528;45.712;9.192;2023-04-25T11:41:15;20.80;69.10
28460;DHT22;32528;45.712;9.192;2023-04-25T11:43:16;20.80;68.30
28460;DHT22;32528;45.712;9.192;2023-04-25T11:45:17;20.70;69.70
28460;DHT22;32528;45.712;9.192;2023-04-25T11:47:19;20.40;69.40
28460;DHT22;32528;45.712;9.192;2023-04-25T11:49:19;20.40;70.70
28460;DHT22;32528;45.712;9.192;2023-04-25T11:51:21;20.50;69.60
28460;DHT22;32528;45.712;9.192;2023-04-25T11:53:22;20.70;70.40
28460;DHT22;32528;45.712;9.192;2023-04-25T11:55:25;20.60;70.40
28460;DHT22;32528;45.712;9.192;2023-04-25T11:57:27;20.40;70.50
28460;DHT22;32528;45.712;9.192;2023-04-25T11:59:27;20.20;71.00
28460;DHT22;32528;45.712;9.192;2023-04-25T12:01:40;20.00;71.70
28460;DHT22;32528;45.712;9.192;2023-04-25T12:03:47;19.80;71.40
28460;DHT22;32528;45.712;9.192;2023-04-25T12:05:47;19.60;72.20
28460;DHT22;32528;45.712;9.192;2023-04-25T12:07:48;19.40;74.70
28460;DHT22;32528;45.712;9.192;2023-04-25T12:09:51;19.10;76.70
28460;DHT22;32528;45.712;9.192;2023-04-25T12:11:55;18.80;80.30
28460;DHT22;32528;45.712;9.192;2023-04-25T12:13:56;18.50;84.60
28460;DHT22;32528;45.712;9.192;2023-04-25T12:15:56;18.20;84.70
28460;DHT22;32528;45.712;9.192;2023-04-25T12:17:57;18.10;88.40
28460;DHT22;32528;45.712;9.192;2023-04-25T12:19:58;17.90;87.60
28460;DHT22;32528;45.712;9.192;2023-04-25T12:21:59;17.70;89.90
28460;DHT22;32528;45.712;9.192;2023-04-25T12:24:13;17.40;90.90
28460;DHT22;32528;45.712;9.192;2023-04-25T12:26:14;17.00;91.70
28460;DHT22;32528;45.712;9.192;2023-04-25T12:28:19;16.80;92.70
28460;DHT22;32528;45.712;9.192;2023-04-25T12:30:20;16.70;91.80
28460;DHT22;32528;45.712;9.192;2023-04-25T12:32:21;16.90;90.70
28460;DHT22;32528;45.712;9.192;2023-04-25T12:34:22;16.80;92.50
28460;DHT22;32528;45.712;9.192;2023-04-25T12:36:26;16.80;93.30
28460;DHT22;32528;45.712;9.192;2023-04-25T12:38:29;16.70;93.90
28460;DHT22;32528;45.712;9.192;2023-04-25T12:40:30;16.90;94.30
28460;DHT22;32528;45.712;9.192;2023-04-25T12:42:31;16.90;93.90
28460;DHT22;32528;45.712;9.192;2023-04-25T12:44:32;16.90;94.20
28460;DHT22;32528;45.712;9.192;2023-04-25T12:46:32;17.20;94.20
28460;DHT22;32528;45.712;9.192;2023-04-25T12:48:33;17.40;93.50
28460;DHT22;32528;45.712;9.192;2023-04-25T12:50:33;17.30;92.50
28460;DHT22;32528;45.712;9.192;2023-04-25T12:52:34;17.30;89.70
28460;DHT22;32528;45.712;9.192;2023-04-25T12:54:35;17.30;89.00
28460;DHT22;32528;45.712;9.192;2023-04-25T12:56:35;17.50;91.60
28460;DHT22;32528;45.712;9.192;2023-04-25T12:58:36;17.60;91.70
28460;DHT22;32528;45.712;9.192;2023-04-25T13:00:37;17.50;89.00
28460;DHT22;32528;45.712;9.192;2023-04-25T13:02:38;17.60;90.80
28460;DHT22;32528;45.712;9.192;2023-04-25T13:04:38;17.80;90.60
28460;DHT22;32528;45.712;9.192;2023-04-25T13:06:39;18.00;89.20
28460;DHT22;32528;45.712;9.192;2023-04-25T13:08:39;18.00;86.90
28460;DHT22;32528;45.712;9.192;2023-04-25T13:10:41;18.20;88.40
28460;DHT22;32528;45.712;9.192;2023-04-25T13:12:42;18.40;87.90
28460;DHT22;32528;45.712;9.192;2023-04-25T13:14:43;18.40;83.80